Capitol Logistics 3274




MYNN
Lynden Pindling International Airport
Nassau, BS
MYGF
Grand Bahama International Airport
Freeport, BS

Activity Log

Date Flight Route Aircraft Duration
03/14/2021 CPX3274 PEACH BR65V ZFP SF34 0h 57m
09/14/2019 CPX674 PEACH BR65V ZFP SF34 0h 46m
09/04/2019 CPX674 PEACH BR65V ZFP SF34 0h 43m
06/25/2019 CPX674 PEACH BR65V ZFP SF34 0h 43m

Route Details

Aircraft Information
Primary: Saab 340AF
Backup: Not Available
Route Data
Distance: 113nm
Duration: 2h 00m
Recm'd Route: PEACH BR65V ZFP
Origin Wx: MYNN 141900Z 05011KT 010V070 9999 FEW035 26/17 A3010
Dest. Wx: MYGF 141900Z 11012KT 9999 FEW030 25/16 A3008
Notes: